VHASH YSHL-YORG
Flight info
| Callsign | VHASH |
|---|---|
| Flight time | 0h 35m |
| Altitude | 20000 |
| Route | AKMIR |
| Aircraft | TBM9/L-SDFGRWY/S |
Departure
| Time | 2026-04-26 12:16 |
|---|---|
| Airport | Shellharbour Airport (YSHL) |
Arrival
| Time | 2026-04-26 12:51 |
|---|---|
| Airport | Orange Airport (YORG) |
| Time | Latitude | Longitude | Altitude | Speed | Heading |
|---|---|---|---|---|---|
| 2026-04-26 12:10 | -34.55825 | 150.78886 | 36 ft | 0 kts | 172° |
| 2026-04-26 12:13 | -34.55843 | 150.78850 | 37 ft | 13 kts | 257° |
| 2026-04-26 12:13 | -34.55909 | 150.78838 | 41 ft | 14 kts | 170° |
| 2026-04-26 12:13 | -34.56025 | 150.78865 | 39 ft | 18 kts | 168° |
| 2026-04-26 12:13 | -34.56148 | 150.78892 | 42 ft | 18 kts | 170° |
| 2026-04-26 12:14 | -34.56236 | 150.78897 | 42 ft | 12 kts | 181° |
| 2026-04-26 12:14 | -34.56362 | 150.78918 | 40 ft | 24 kts | 169° |
| 2026-04-26 12:14 | -34.56542 | 150.78955 | 38 ft | 27 kts | 170° |
| 2026-04-26 12:14 | -34.56693 | 150.78991 | 39 ft | 7 kts | 175° |
| 2026-04-26 12:15 | -34.56719 | 150.78951 | 40 ft | 7 kts | 259° |
| 2026-04-26 12:15 | -34.56717 | 150.78904 | 40 ft | 5 kts | 318° |
| 2026-04-26 12:15 | -34.56613 | 150.78868 | 40 ft | 40 kts | 348° |
| 2026-04-26 12:15 | -34.56126 | 150.78761 | 62 ft | 100 kts | 349° |
| 2026-04-26 12:16 | -34.55337 | 150.78591 | 333 ft | 128 kts | 349° |
| 2026-04-26 12:16 | -34.54382 | 150.78418 | 699 ft | 148 kts | 351° |
| 2026-04-26 12:16 | -34.53339 | 150.78372 | 1191 ft | 152 kts | 16° |
| 2026-04-26 12:16 | -34.52604 | 150.79219 | 1851 ft | 152 kts | 68° |
| 2026-04-26 12:17 | -34.52583 | 150.80511 | 2380 ft | 157 kts | 93° |
| 2026-04-26 12:17 | -34.52700 | 150.81838 | 2926 ft | 158 kts | 93° |
| 2026-04-26 12:17 | -34.52670 | 150.83154 | 3428 ft | 156 kts | 66° |
| 2026-04-26 12:17 | -34.51920 | 150.84035 | 3923 ft | 155 kts | 21° |
| 2026-04-26 12:18 | -34.50846 | 150.84178 | 4380 ft | 160 kts | 347° |
| 2026-04-26 12:18 | -34.49893 | 150.83489 | 4888 ft | 164 kts | 309° |
| 2026-04-26 12:18 | -34.49352 | 150.82291 | 5430 ft | 165 kts | 294° |
| 2026-04-26 12:18 | -34.48834 | 150.81026 | 6054 ft | 166 kts | 297° |
| 2026-04-26 12:19 | -34.48284 | 150.79758 | 6503 ft | 179 kts | 298° |
| 2026-04-26 12:19 | -34.47701 | 150.78423 | 7077 ft | 179 kts | 298° |
| 2026-04-26 12:19 | -34.47117 | 150.77082 | 7646 ft | 181 kts | 298° |
| 2026-04-26 12:19 | -34.46525 | 150.75726 | 8180 ft | 185 kts | 298° |
| 2026-04-26 12:20 | -34.45911 | 150.74321 | 8679 ft | 189 kts | 299° |
| 2026-04-26 12:20 | -34.45292 | 150.72908 | 9251 ft | 190 kts | 299° |
| 2026-04-26 12:20 | -34.44679 | 150.71503 | 9815 ft | 192 kts | 299° |
| 2026-04-26 12:20 | -34.44049 | 150.70064 | 10366 ft | 194 kts | 300° |
| 2026-04-26 12:21 | -34.43417 | 150.68619 | 10883 ft | 195 kts | 300° |
| 2026-04-26 12:21 | -34.42779 | 150.67158 | 11404 ft | 197 kts | 300° |
| 2026-04-26 12:21 | -34.42134 | 150.65687 | 11929 ft | 199 kts | 300° |
| 2026-04-26 12:21 | -34.41485 | 150.64205 | 12453 ft | 200 kts | 299° |
| 2026-04-26 12:22 | -34.40827 | 150.62703 | 12983 ft | 202 kts | 300° |
| 2026-04-26 12:22 | -34.40164 | 150.61192 | 13519 ft | 204 kts | 300° |
| 2026-04-26 12:22 | -34.39496 | 150.59668 | 14055 ft | 206 kts | 299° |
| 2026-04-26 12:22 | -34.38820 | 150.58130 | 14533 ft | 208 kts | 300° |
| 2026-04-26 12:23 | -34.38140 | 150.56580 | 15010 ft | 210 kts | 300° |
| 2026-04-26 12:23 | -34.37452 | 150.55013 | 15489 ft | 211 kts | 300° |
| 2026-04-26 12:23 | -34.36756 | 150.53431 | 15977 ft | 214 kts | 300° |
| 2026-04-26 12:23 | -34.36057 | 150.51841 | 16450 ft | 215 kts | 300° |
| 2026-04-26 12:24 | -34.35350 | 150.50234 | 16936 ft | 217 kts | 300° |
| 2026-04-26 12:24 | -34.34638 | 150.48615 | 17421 ft | 219 kts | 300° |
| 2026-04-26 12:24 | -34.33917 | 150.46978 | 17909 ft | 221 kts | 300° |
| 2026-04-26 12:25 | -34.32465 | 150.43683 | 18850 ft | 225 kts | 300° |
| 2026-04-26 12:25 | -34.31725 | 150.42005 | 19280 ft | 227 kts | 300° |
| 2026-04-26 12:25 | -34.30980 | 150.40315 | 19716 ft | 228 kts | 300° |
| 2026-04-26 12:25 | -34.30231 | 150.38618 | 20146 ft | 230 kts | 300° |
| 2026-04-26 12:26 | -34.29458 | 150.36873 | 20306 ft | 244 kts | 300° |
| 2026-04-26 12:26 | -34.28624 | 150.34999 | 20320 ft | 261 kts | 300° |
| 2026-04-26 12:26 | -34.27743 | 150.33014 | 20321 ft | 274 kts | 300° |
| 2026-04-26 12:26 | -34.26829 | 150.30948 | 20323 ft | 283 kts | 300° |
| 2026-04-26 12:27 | -34.25889 | 150.28825 | 20322 ft | 289 kts | 300° |
| 2026-04-26 12:27 | -34.24934 | 150.26666 | 20328 ft | 293 kts | 300° |
| 2026-04-26 12:27 | -34.24281 | 150.25194 | 20325 ft | 295 kts | 300° |
| 2026-04-26 12:27 | -34.22991 | 150.22284 | 20326 ft | 298 kts | 300° |
| 2026-04-26 12:28 | -34.22339 | 150.20815 | 20326 ft | 299 kts | 300° |
| 2026-04-26 12:28 | -34.21352 | 150.18591 | 20331 ft | 299 kts | 300° |
| 2026-04-26 12:28 | -34.20369 | 150.16377 | 20331 ft | 299 kts | 300° |
| 2026-04-26 12:28 | -34.19384 | 150.14159 | 20332 ft | 299 kts | 300° |
| 2026-04-26 12:29 | -34.18399 | 150.11945 | 20329 ft | 299 kts | 300° |
| 2026-04-26 12:29 | -34.17212 | 150.09899 | 20332 ft | 297 kts | 314° |
| 2026-04-26 12:29 | -34.14323 | 150.06325 | 20332 ft | 297 kts | 315° |
| 2026-04-26 12:30 | -34.12989 | 150.04458 | 20322 ft | 298 kts | 310° |
| 2026-04-26 12:30 | -34.11721 | 150.02477 | 20322 ft | 298 kts | 309° |
| 2026-04-26 12:30 | -34.10431 | 150.00518 | 20329 ft | 298 kts | 311° |
| 2026-04-26 12:31 | -34.07792 | 149.96673 | 20326 ft | 297 kts | 311° |
| 2026-04-26 12:31 | -34.06487 | 149.94735 | 20326 ft | 298 kts | 310° |
| 2026-04-26 12:31 | -34.05177 | 149.92794 | 20325 ft | 298 kts | 311° |
| 2026-04-26 12:31 | -34.03865 | 149.90864 | 20328 ft | 298 kts | 311° |
| 2026-04-26 12:32 | -34.02551 | 149.88930 | 20325 ft | 298 kts | 311° |
| 2026-04-26 12:32 | -34.01238 | 149.86995 | 20330 ft | 298 kts | 311° |
| 2026-04-26 12:32 | -33.98616 | 149.83135 | 20332 ft | 297 kts | 311° |
| 2026-04-26 12:33 | -33.97320 | 149.81229 | 20330 ft | 297 kts | 311° |
| 2026-04-26 12:33 | -33.96009 | 149.79303 | 20328 ft | 297 kts | 311° |
| 2026-04-26 12:33 | -33.94701 | 149.77379 | 20332 ft | 297 kts | 311° |
| 2026-04-26 12:33 | -33.93389 | 149.75455 | 20329 ft | 297 kts | 311° |
| 2026-04-26 12:34 | -33.92076 | 149.73529 | 20325 ft | 297 kts | 311° |
| 2026-04-26 12:34 | -33.90768 | 149.71607 | 20326 ft | 297 kts | 311° |
| 2026-04-26 12:34 | -33.89457 | 149.69686 | 20323 ft | 297 kts | 311° |
| 2026-04-26 12:34 | -33.88143 | 149.67759 | 20331 ft | 297 kts | 311° |
| 2026-04-26 12:35 | -33.86829 | 149.65836 | 20336 ft | 297 kts | 311° |
| 2026-04-26 12:35 | -33.85516 | 149.63916 | 20328 ft | 297 kts | 311° |
| 2026-04-26 12:35 | -33.84202 | 149.61993 | 20326 ft | 297 kts | 311° |
| 2026-04-26 12:35 | -33.82891 | 149.60075 | 20330 ft | 297 kts | 311° |
| 2026-04-26 12:36 | -33.81576 | 149.58155 | 20326 ft | 297 kts | 311° |
| 2026-04-26 12:36 | -33.80262 | 149.56236 | 20329 ft | 297 kts | 311° |
| 2026-04-26 12:36 | -33.78947 | 149.54315 | 20324 ft | 297 kts | 311° |
| 2026-04-26 12:36 | -33.77641 | 149.52413 | 20186 ft | 302 kts | 311° |
| 2026-04-26 12:37 | -33.76278 | 149.50434 | 19815 ft | 311 kts | 311° |
| 2026-04-26 12:37 | -33.74880 | 149.48407 | 19401 ft | 317 kts | 311° |
| 2026-04-26 12:37 | -33.73471 | 149.46355 | 18978 ft | 320 kts | 311° |
| 2026-04-26 12:37 | -33.72051 | 149.44286 | 18423 ft | 324 kts | 311° |
| 2026-04-26 12:38 | -33.70606 | 149.42191 | 17845 ft | 325 kts | 311° |
| 2026-04-26 12:38 | -33.69176 | 149.40105 | 17407 ft | 321 kts | 311° |
| 2026-04-26 12:38 | -33.67765 | 149.38043 | 16977 ft | 318 kts | 311° |
| 2026-04-26 12:38 | -33.66360 | 149.36002 | 16554 ft | 316 kts | 311° |
| 2026-04-26 12:39 | -33.64960 | 149.33975 | 16139 ft | 314 kts | 311° |
| 2026-04-26 12:39 | -33.63574 | 149.31962 | 15732 ft | 313 kts | 311° |
| 2026-04-26 12:39 | -33.62187 | 149.29951 | 15312 ft | 310 kts | 311° |
| 2026-04-26 12:39 | -33.60815 | 149.27964 | 14902 ft | 307 kts | 311° |
| 2026-04-26 12:40 | -33.59473 | 149.26020 | 14497 ft | 305 kts | 311° |
| 2026-04-26 12:40 | -33.58123 | 149.24065 | 14095 ft | 303 kts | 311° |
| 2026-04-26 12:40 | -33.56781 | 149.22123 | 13674 ft | 301 kts | 311° |
| 2026-04-26 12:40 | -33.55451 | 149.20201 | 13268 ft | 299 kts | 311° |
| 2026-04-26 12:41 | -33.54126 | 149.18283 | 12873 ft | 297 kts | 311° |
| 2026-04-26 12:41 | -33.52813 | 149.16388 | 12484 ft | 295 kts | 311° |
| 2026-04-26 12:41 | -33.51506 | 149.14504 | 12093 ft | 293 kts | 311° |
| 2026-04-26 12:41 | -33.50205 | 149.12628 | 11704 ft | 292 kts | 311° |
| 2026-04-26 12:42 | -33.48910 | 149.10761 | 11319 ft | 290 kts | 311° |
| 2026-04-26 12:42 | -33.47622 | 149.08903 | 10929 ft | 289 kts | 311° |
| 2026-04-26 12:42 | -33.46349 | 149.07052 | 10555 ft | 288 kts | 309° |
| 2026-04-26 12:42 | -33.45083 | 149.05197 | 10172 ft | 286 kts | 311° |
| 2026-04-26 12:43 | -33.43781 | 149.03400 | 9768 ft | 284 kts | 311° |
| 2026-04-26 12:43 | -33.42522 | 149.01587 | 9393 ft | 283 kts | 310° |
| 2026-04-26 12:43 | -33.41298 | 148.99794 | 9026 ft | 281 kts | 310° |
| 2026-04-26 12:43 | -33.40049 | 148.97997 | 8653 ft | 280 kts | 311° |
| 2026-04-26 12:44 | -33.38804 | 148.96220 | 8284 ft | 279 kts | 310° |
| 2026-04-26 12:44 | -33.37582 | 148.94466 | 7917 ft | 264 kts | 310° |
| 2026-04-26 12:44 | -33.36444 | 148.92808 | 7580 ft | 253 kts | 310° |
| 2026-04-26 12:44 | -33.35335 | 148.91206 | 7245 ft | 247 kts | 311° |
| 2026-04-26 12:45 | -33.34242 | 148.89652 | 6928 ft | 242 kts | 311° |
| 2026-04-26 12:45 | -33.33044 | 148.88272 | 6614 ft | 237 kts | 329° |
| 2026-04-26 12:45 | -33.31531 | 148.87590 | 6298 ft | 232 kts | 351° |
| 2026-04-26 12:45 | -33.29945 | 148.87650 | 6146 ft | 228 kts | 13° |
| 2026-04-26 12:46 | -33.28495 | 148.88408 | 6149 ft | 230 kts | 36° |
| 2026-04-26 12:46 | -33.27401 | 148.89761 | 6149 ft | 232 kts | 58° |
| 2026-04-26 12:46 | -33.26806 | 148.91550 | 6116 ft | 234 kts | 80° |
| 2026-04-26 12:46 | -33.26834 | 148.93468 | 6007 ft | 230 kts | 103° |
| 2026-04-26 12:47 | -33.27461 | 148.95206 | 5869 ft | 229 kts | 125° |
| 2026-04-26 12:47 | -33.28393 | 148.96745 | 5699 ft | 229 kts | 127° |
| 2026-04-26 12:47 | -33.29321 | 148.98293 | 5527 ft | 228 kts | 126° |
| 2026-04-26 12:47 | -33.30223 | 148.99793 | 5358 ft | 216 kts | 127° |
| 2026-04-26 12:48 | -33.31079 | 149.01223 | 5193 ft | 207 kts | 127° |
| 2026-04-26 12:48 | -33.31902 | 149.02594 | 4997 ft | 199 kts | 127° |
| 2026-04-26 12:48 | -33.32679 | 149.03887 | 4774 ft | 185 kts | 127° |
| 2026-04-26 12:48 | -33.33400 | 149.05093 | 4557 ft | 170 kts | 126° |
| 2026-04-26 12:49 | -33.34062 | 149.06202 | 4343 ft | 156 kts | 126° |
| 2026-04-26 12:49 | -33.34658 | 149.07196 | 4152 ft | 140 kts | 126° |
| 2026-04-26 12:49 | -33.35196 | 149.08095 | 3988 ft | 123 kts | 126° |
| 2026-04-26 12:49 | -33.35635 | 149.08837 | 3858 ft | 104 kts | 125° |
| 2026-04-26 12:50 | -33.36055 | 149.09543 | 3728 ft | 102 kts | 126° |
| 2026-04-26 12:50 | -33.36460 | 149.10218 | 3599 ft | 98 kts | 125° |
| 2026-04-26 12:50 | -33.36848 | 149.10871 | 3453 ft | 97 kts | 124° |
| 2026-04-26 12:50 | -33.37230 | 149.11514 | 3213 ft | 91 kts | 126° |
| 2026-04-26 12:51 | -33.37595 | 149.12117 | 3157 ft | 89 kts | 127° |
| 2026-04-26 12:51 | -33.37945 | 149.12703 | 3136 ft | 66 kts | 126° |
| 2026-04-26 12:51 | -33.38060 | 149.12917 | 3136 ft | 9 kts | 118° |
| 2026-04-26 12:51 | -33.38062 | 149.12896 | 3136 ft | 7 kts | 301° |
| 2026-04-26 12:52 | -33.38020 | 149.12823 | 3137 ft | 13 kts | 305° |
| 2026-04-26 12:52 | -33.37990 | 149.12747 | 3136 ft | 9 kts | 245° |
| 2026-04-26 12:52 | -33.38028 | 149.12676 | 3138 ft | 11 kts | 238° |
| 2026-04-26 12:52 | -33.38071 | 149.12591 | 3138 ft | 8 kts | 237° |
| 2026-04-26 12:53 | -33.38081 | 149.12572 | 3137 ft | 0 kts | 236° |
| 2026-04-26 12:53 | -33.38086 | 149.12565 | 3138 ft | 6 kts | 233° |
| 2026-04-26 12:53 | -33.38124 | 149.12486 | 3140 ft | 9 kts | 252° |
| 2026-04-26 12:53 | -33.38125 | 149.12471 | 3141 ft | 0 kts | 312° |